createdAt,value
2019-03-26T04:02:36.007Z,4.80
2019-03-26T04:05:05.192Z,4.77
2019-03-26T04:07:34.274Z,5.60
2019-03-26T04:10:03.404Z,5.10
2019-03-26T04:12:32.491Z,4.83
2019-03-26T04:15:01.571Z,4.87
2019-03-26T04:17:30.751Z,4.90
2019-03-26T04:20:00.482Z,5.33
2019-03-26T04:22:29.709Z,5.43
2019-03-26T04:24:58.843Z,4.83
2019-03-26T04:27:27.935Z,5.30
2019-03-26T04:29:57.034Z,5.30
2019-03-26T04:32:26.147Z,5.13
2019-03-26T04:34:55.239Z,6.03
2019-03-26T04:37:24.331Z,5.80
2019-03-26T04:39:53.454Z,6.40
2019-03-26T04:42:22.859Z,6.10
2019-03-26T04:44:51.942Z,6.30
2019-03-26T04:47:21.089Z,6.90
2019-03-26T04:49:50.241Z,6.33
2019-03-26T04:52:19.378Z,5.90
2019-03-26T04:54:48.486Z,6.20
2019-03-26T04:57:17.570Z,6.10
2019-03-26T04:59:46.994Z,6.37
2019-03-26T05:02:16.110Z,6.47
2019-03-26T05:04:45.237Z,5.97
2019-03-26T05:07:14.331Z,6.80
2019-03-26T05:09:43.466Z,6.97
2019-03-26T05:12:12.646Z,6.77
2019-03-26T05:14:41.763Z,7.77
2019-03-26T05:17:10.874Z,7.60
2019-03-26T05:19:39.978Z,7.97
2019-03-26T05:22:09.077Z,7.70
2019-03-26T05:24:38.298Z,8.27
2019-03-26T05:27:07.398Z,8.00
2019-03-26T05:29:36.564Z,7.57
2019-03-26T05:32:05.690Z,7.90
2019-03-26T05:34:34.795Z,7.80
2019-03-26T05:37:03.981Z,7.90
2019-03-26T05:39:33.159Z,7.90
2019-03-26T05:42:02.827Z,8.17
2019-03-26T05:44:31.969Z,7.37
2019-03-26T05:47:01.797Z,8.43
2019-03-26T05:49:31.044Z,7.17
2019-03-26T05:52:01.022Z,7.70
2019-03-26T05:54:30.118Z,8.00
2019-03-26T05:56:59.546Z,7.80
2019-03-26T05:59:28.642Z,8.27
2019-03-26T06:01:57.771Z,7.77
2019-03-26T06:04:26.859Z,8.07
2019-03-26T06:07:04.814Z,7.40
2019-03-26T06:09:26.805Z,8.27
2019-03-26T06:11:55.926Z,7.77
2019-03-26T06:14:25.103Z,8.20
2019-03-26T06:16:54.516Z,7.80
2019-03-26T06:19:23.609Z,7.73
2019-03-26T06:21:52.819Z,8.37
2019-03-26T06:24:21.964Z,9.77
2019-03-26T06:26:51.091Z,10.53
2019-03-26T06:29:20.183Z,11.07
2019-03-26T06:31:49.277Z,9.73
2019-03-26T06:34:18.386Z,9.63
2019-03-26T06:36:47.514Z,10.00
2019-03-26T06:39:16.642Z,9.47
2019-03-26T06:41:45.742Z,9.43
2019-03-26T06:44:14.834Z,8.73
2019-03-26T06:46:43.972Z,9.63
2019-03-26T06:49:13.047Z,9.77
2019-03-26T06:51:42.161Z,9.17
2019-03-26T06:54:11.251Z,9.93
2019-03-26T06:56:40.341Z,9.67
2019-03-26T06:59:09.522Z,10.77
2019-03-26T07:01:38.632Z,9.57
2019-03-26T07:04:08.066Z,10.83
2019-03-26T07:06:37.494Z,9.77
2019-03-26T07:09:07.595Z,9.50
2019-03-26T07:11:36.740Z,9.63
2019-03-26T07:14:05.830Z,8.73
2019-03-26T07:16:34.967Z,9.07
2019-03-26T07:19:04.062Z,8.93
2019-03-26T07:21:33.186Z,9.47
2019-03-26T07:24:02.578Z,9.33
2019-03-26T07:26:31.675Z,9.40
2019-03-26T07:29:00.791Z,9.20
2019-03-26T07:31:29.886Z,9.20
2019-03-26T07:33:59.003Z,10.43
2019-03-26T07:36:28.466Z,9.13
2019-03-26T07:38:57.614Z,8.53
2019-03-26T07:41:26.717Z,8.93
2019-03-26T07:43:55.806Z,8.60
2019-03-26T07:46:24.917Z,9.73
2019-03-26T07:48:54.007Z,8.37
2019-03-26T07:51:23.125Z,9.43
2019-03-26T07:53:52.223Z,8.40
2019-03-26T07:56:21.302Z,8.00
2019-03-26T07:58:50.448Z,9.00
2019-03-26T08:01:19.587Z,7.83
2019-03-26T08:03:48.986Z,7.17
2019-03-26T08:06:18.078Z,7.50
2019-03-26T08:08:47.196Z,6.67
2019-03-26T08:11:16.295Z,6.63
2019-03-26T08:13:45.413Z,7.30
2019-03-26T08:16:14.545Z,7.70
2019-03-26T08:18:43.610Z,7.60
2019-03-26T08:21:12.738Z,7.37
2019-03-26T08:23:41.854Z,7.87
2019-03-26T08:26:10.948Z,8.07
2019-03-26T08:28:40.062Z,8.20
2019-03-26T08:31:09.235Z,7.13
2019-03-26T08:33:38.353Z,7.33
2019-03-26T08:36:07.591Z,7.77
2019-03-26T08:38:36.699Z,7.43
2019-03-26T08:41:05.834Z,7.13
2019-03-26T08:43:34.934Z,7.07
2019-03-26T08:46:04.057Z,7.80
2019-03-26T08:48:33.171Z,6.97
2019-03-26T08:51:02.259Z,7.37
2019-03-26T08:53:31.456Z,7.47
2019-03-26T08:56:00.542Z,7.33
2019-03-26T08:58:29.971Z,7.30
2019-03-26T09:00:59.090Z,7.77
2019-03-26T09:03:28.188Z,7.90
2019-03-26T09:05:57.298Z,7.50
2019-03-26T09:08:26.397Z,7.63
2019-03-26T09:10:55.594Z,7.23
2019-03-26T09:13:24.687Z,8.20
2019-03-26T09:15:53.781Z,8.33
2019-03-26T09:18:22.894Z,8.27
2019-03-26T09:20:52.002Z,8.63
2019-03-26T09:23:21.119Z,9.23
2019-03-26T09:25:50.559Z,8.47
2019-03-26T09:28:20.054Z,7.80
2019-03-26T09:30:49.166Z,7.43
2019-03-26T09:33:18.259Z,6.80
2019-03-26T09:35:47.369Z,6.50
2019-03-26T09:38:16.470Z,7.17
2019-03-26T09:40:45.571Z,7.20
2019-03-26T09:43:14.690Z,7.60
2019-03-26T09:45:43.783Z,7.27
2019-03-26T09:48:12.956Z,7.50
2019-03-26T09:50:42.086Z,7.10
2019-03-26T09:53:11.178Z,6.80
2019-03-26T09:55:40.290Z,6.43
2019-03-26T09:58:09.706Z,6.07
2019-03-26T10:00:38.909Z,5.70
2019-03-26T10:03:08.090Z,6.30
2019-03-26T10:05:37.214Z,6.10
2019-03-26T10:08:06.319Z,6.23
2019-03-26T10:10:35.559Z,6.03
2019-03-26T10:13:05.146Z,6.10
2019-03-26T10:15:34.266Z,5.80
2019-03-26T10:18:03.382Z,5.50
2019-03-26T10:20:32.483Z,5.80
2019-03-26T10:23:01.574Z,5.50
2019-03-26T10:25:30.692Z,3.80
2019-03-26T10:27:59.794Z,4.20
2019-03-26T10:30:38.618Z,4.00
2019-03-26T10:33:07.788Z,4.50
2019-03-26T10:35:36.900Z,4.63
2019-03-26T10:38:06.122Z,3.20
2019-03-26T10:40:36.042Z,3.90
2019-03-26T10:43:05.210Z,3.87
2019-03-26T10:45:34.338Z,3.70
2019-03-26T10:48:03.441Z,4.20
2019-03-26T10:50:32.548Z,4.10
2019-03-26T10:53:01.639Z,3.80
2019-03-26T10:55:31.390Z,3.40
2019-03-26T10:58:00.575Z,3.27
2019-03-26T11:00:29.759Z,3.63
2019-03-26T11:02:58.855Z,2.63
2019-03-26T11:05:28.118Z,2.73
2019-03-26T11:07:57.246Z,3.43
2019-03-26T11:10:26.342Z,4.00
2019-03-26T11:12:55.734Z,3.17
2019-03-26T11:15:24.860Z,3.40
2019-03-26T11:17:53.990Z,3.13
2019-03-26T11:20:23.105Z,3.00
2019-03-26T11:22:52.197Z,3.10
2019-03-26T11:25:21.296Z,3.23
2019-03-26T11:27:50.783Z,3.00
2019-03-26T11:30:19.906Z,2.80
2019-03-26T11:32:49.018Z,2.87
2019-03-26T11:35:18.117Z,3.13
2019-03-26T11:37:47.214Z,3.03
2019-03-26T11:40:16.331Z,4.00
2019-03-26T11:42:45.774Z,3.30
2019-03-26T11:45:15.986Z,2.90
2019-03-26T11:47:45.134Z,3.13
2019-03-26T11:50:14.279Z,2.77
2019-03-26T11:52:43.390Z,2.53
2019-03-26T11:55:12.962Z,2.27
2019-03-26T11:57:42.075Z,2.40
2019-03-26T12:00:11.994Z,2.80
2019-03-26T12:02:41.383Z,2.37
2019-03-26T12:05:10.501Z,3.10
2019-03-26T12:07:42.713Z,3.20
2019-03-26T12:10:10.434Z,3.67
2019-03-26T12:12:39.531Z,3.90
2019-03-26T12:15:08.750Z,4.73
2019-03-26T12:17:37.864Z,3.73
2019-03-26T12:20:07.095Z,3.80
2019-03-26T12:22:36.232Z,3.20
2019-03-26T12:25:05.654Z,3.67
2019-03-26T12:27:36.577Z,4.10
2019-03-26T12:30:06.390Z,3.40
2019-03-26T12:32:35.493Z,3.13
2019-03-26T12:35:04.983Z,3.43
2019-03-26T12:37:34.078Z,3.93
2019-03-26T12:40:03.214Z,3.87
2019-03-26T12:42:32.311Z,3.77
2019-03-26T12:45:01.426Z,4.90
2019-03-26T12:47:30.518Z,4.13
2019-03-26T12:49:59.927Z,3.20
2019-03-26T12:52:29.439Z,3.57
2019-03-26T12:54:58.606Z,3.23
2019-03-26T12:57:27.726Z,3.50
2019-03-26T12:59:56.828Z,3.73
2019-03-26T13:02:25.919Z,3.30
2019-03-26T13:04:55.130Z,5.13
2019-03-26T13:07:24.230Z,4.37
2019-03-26T13:09:53.422Z,4.37
2019-03-26T13:12:22.513Z,4.03
2019-03-26T13:14:51.626Z,4.20
2019-03-26T13:17:20.778Z,4.43
2019-03-26T13:19:49.878Z,4.23
2019-03-26T13:22:18.994Z,4.10
2019-03-26T13:24:48.134Z,4.07
2019-03-26T13:27:17.239Z,4.70
2019-03-26T13:29:46.354Z,4.67
2019-03-26T13:32:15.457Z,3.60
2019-03-26T13:34:44.839Z,4.03
2019-03-26T13:37:13.938Z,3.33
2019-03-26T13:39:43.026Z,4.17
2019-03-26T13:42:12.142Z,3.50
2019-03-26T13:44:41.250Z,3.10
2019-03-26T13:47:10.382Z,4.40
2019-03-26T13:49:39.486Z,3.93
2019-03-26T13:52:08.656Z,4.63
2019-03-26T13:54:38.150Z,4.33
2019-03-26T13:57:07.247Z,4.13
2019-03-26T13:59:36.469Z,4.27
2019-03-26T14:02:05.558Z,4.53
2019-03-26T14:04:34.653Z,3.83
2019-03-26T14:07:03.767Z,4.60
2019-03-26T14:09:32.877Z,4.20
2019-03-26T14:12:02.030Z,4.10
2019-03-26T14:14:31.138Z,4.77
2019-03-26T14:17:00.289Z,3.50
2019-03-26T14:19:29.402Z,3.87
2019-03-26T14:21:58.496Z,4.30
2019-03-26T14:24:27.606Z,4.30
2019-03-26T14:26:56.707Z,3.63
2019-03-26T14:29:25.810Z,3.93
2019-03-26T14:31:54.912Z,3.30
2019-03-26T14:34:24.024Z,3.77
2019-03-26T14:36:53.140Z,3.20
2019-03-26T14:39:22.263Z,4.43
2019-03-26T14:41:51.362Z,4.33
2019-03-26T14:44:20.466Z,4.07
2019-03-26T14:46:49.559Z,3.70
2019-03-26T14:49:18.682Z,3.80
2019-03-26T14:51:47.774Z,3.70
2019-03-26T14:54:16.863Z,3.67
2019-03-26T14:56:46.066Z,4.47
2019-03-26T14:59:15.146Z,4.17
2019-03-26T15:01:44.278Z,4.13
2019-03-26T15:04:13.714Z,4.70
2019-03-26T15:06:42.810Z,4.23
2019-03-26T15:09:11.923Z,4.37
2019-03-26T15:11:41.019Z,4.27
2019-03-26T15:14:10.140Z,4.80
2019-03-26T15:16:39.323Z,4.80
2019-03-26T15:19:08.427Z,5.10
2019-03-26T15:21:37.594Z,4.83
2019-03-26T15:24:06.698Z,4.43
2019-03-26T15:26:36.258Z,4.80
2019-03-26T15:29:05.354Z,4.90
2019-03-26T15:31:34.579Z,4.70
2019-03-26T15:34:04.002Z,4.20
2019-03-26T15:36:33.139Z,4.10
2019-03-26T15:39:02.247Z,4.37
2019-03-26T15:41:31.619Z,4.57
2019-03-26T15:44:00.708Z,5.50
2019-03-26T15:46:29.824Z,3.70
2019-03-26T15:48:58.928Z,4.57
2019-03-26T15:51:28.050Z,4.43
2019-03-26T15:53:57.154Z,4.67
2019-03-26T15:56:26.284Z,5.20
2019-03-26T15:58:55.378Z,3.87
2019-03-26T16:01:24.744Z,4.47
2019-03-26T16:03:54.097Z,4.57
2019-03-26T16:06:23.183Z,3.93
2019-03-26T16:08:52.291Z,3.67
2019-03-26T16:11:34.704Z,4.13
2019-03-26T16:13:52.194Z,3.60
2019-03-26T16:16:21.297Z,4.17
2019-03-26T16:18:50.404Z,4.10
2019-03-26T16:21:19.656Z,4.47
2019-03-26T16:23:48.976Z,4.03
2019-03-26T16:26:20.634Z,3.07
2019-03-26T16:28:48.998Z,3.53
2019-03-26T16:31:18.104Z,2.90
2019-03-26T16:33:47.539Z,3.70
2019-03-26T16:36:16.712Z,3.30
2019-03-26T16:38:45.806Z,3.73
2019-03-26T16:41:33.955Z,3.33
2019-03-26T16:44:03.042Z,3.07
2019-03-26T16:46:32.150Z,3.43
2019-03-26T16:49:01.248Z,4.10
2019-03-26T16:51:30.330Z,4.43
2019-03-26T16:53:59.535Z,3.83
2019-03-26T16:56:28.759Z,4.70
2019-03-26T16:58:58.596Z,3.43
2019-03-26T17:01:27.728Z,3.77
2019-03-26T17:03:56.835Z,3.13
2019-03-26T17:06:25.944Z,3.30
2019-03-26T17:08:55.291Z,3.37
2019-03-26T17:11:24.430Z,2.90
2019-03-26T17:13:53.606Z,3.17
2019-03-26T17:16:22.748Z,3.17
2019-03-26T17:18:52.350Z,3.10
2019-03-26T17:21:21.502Z,3.10
2019-03-26T17:23:50.618Z,3.23
2019-03-26T17:26:19.742Z,3.50
2019-03-26T17:28:48.845Z,3.23
2019-03-26T17:31:17.967Z,3.80
2019-03-26T17:33:47.141Z,3.80
2019-03-26T17:36:16.279Z,3.70
2019-03-26T17:38:45.494Z,3.23
2019-03-26T17:41:14.617Z,3.57
2019-03-26T17:43:44.158Z,3.20
2019-03-26T17:46:32.287Z,3.20
2019-03-26T17:49:01.734Z,3.20
2019-03-26T17:51:30.895Z,2.70
2019-03-26T17:53:59.993Z,3.50
2019-03-26T17:56:29.142Z,3.83
2019-03-26T17:58:58.238Z,3.33
2019-03-26T18:01:27.422Z,3.93
2019-03-26T18:03:56.531Z,3.90
2019-03-26T18:06:25.727Z,3.87
2019-03-26T18:08:54.934Z,3.53
2019-03-26T18:11:24.164Z,4.00
2019-03-26T18:13:53.270Z,3.80
2019-03-26T18:16:22.405Z,4.10
2019-03-26T18:18:54.723Z,4.50
2019-03-26T18:21:22.318Z,3.80
2019-03-26T18:23:51.491Z,3.80
2019-03-26T18:26:20.701Z,4.00
2019-03-26T18:28:49.793Z,4.10
2019-03-26T18:31:18.926Z,4.43
2019-03-26T18:33:48.111Z,4.00
2019-03-26T18:36:17.222Z,4.33
2019-03-26T18:38:46.395Z,6.43
2019-03-26T18:41:15.511Z,6.57
2019-03-26T18:43:44.628Z,7.23
2019-03-26T18:46:14.102Z,7.63
2019-03-26T18:48:43.167Z,6.57
2019-03-26T18:51:12.599Z,6.67
2019-03-26T18:53:41.702Z,7.00
2019-03-26T18:56:10.862Z,8.07
2019-03-26T18:58:40.298Z,6.27
2019-03-26T19:01:09.395Z,5.10
2019-03-26T19:03:38.618Z,4.60
2019-03-26T19:06:07.746Z,4.93
2019-03-26T19:08:39.828Z,5.13
2019-03-26T19:11:07.819Z,5.23
2019-03-26T19:13:37.192Z,4.60
2019-03-26T19:16:06.389Z,5.03
2019-03-26T19:18:35.535Z,5.77
2019-03-26T19:21:04.666Z,5.47
2019-03-26T19:23:33.780Z,7.07
2019-03-26T19:26:03.163Z,6.07
2019-03-26T19:28:32.283Z,6.33
2019-03-26T19:31:01.369Z,7.27
2019-03-26T19:33:30.482Z,6.27
2019-03-26T19:35:59.907Z,6.67
2019-03-26T19:38:29.005Z,6.43
2019-03-26T19:40:58.215Z,6.27
2019-03-26T19:43:27.402Z,6.93
2019-03-26T19:45:56.603Z,5.87
2019-03-26T19:48:26.055Z,6.10
2019-03-26T19:50:55.146Z,7.13
2019-03-26T19:53:24.258Z,6.80
2019-03-26T19:55:53.357Z,7.17
2019-03-26T19:58:22.574Z,6.87
2019-03-26T20:00:51.802Z,7.07
2019-03-26T20:03:20.983Z,6.90
2019-03-26T20:05:50.133Z,6.50
2019-03-26T20:08:19.226Z,7.57
2019-03-26T20:10:48.375Z,8.43
2019-03-26T20:13:24.228Z,8.43
2019-03-26T20:15:48.352Z,8.70
2019-03-26T20:18:17.466Z,7.50
2019-03-26T20:20:46.557Z,9.10
2019-03-26T20:23:15.678Z,8.43
2019-03-26T20:25:44.791Z,8.00
2019-03-26T20:28:13.897Z,8.87
2019-03-26T20:30:43.037Z,9.87
2019-03-26T20:33:12.198Z,9.53
2019-03-26T20:35:41.350Z,9.33
2019-03-26T20:38:10.442Z,9.60
2019-03-26T20:40:39.535Z,10.03
2019-03-26T20:43:08.646Z,9.70
2019-03-26T20:45:37.815Z,10.00
2019-03-26T20:48:06.927Z,9.90
2019-03-26T20:50:36.028Z,11.03
2019-03-26T20:53:05.219Z,11.93
2019-03-26T20:55:35.222Z,10.73
2019-03-26T20:58:04.569Z,10.17
2019-03-26T21:00:38.234Z,11.33
2019-03-26T21:03:07.358Z,11.17
2019-03-26T21:05:36.689Z,10.67
2019-03-26T21:08:05.995Z,10.67
2019-03-26T21:10:35.126Z,11.23
2019-03-26T21:13:04.321Z,10.90
2019-03-26T21:15:33.434Z,11.10
2019-03-26T21:18:02.603Z,10.53
2019-03-26T21:20:31.735Z,10.23
2019-03-26T21:23:00.842Z,10.83
2019-03-26T21:25:29.977Z,10.63
2019-03-26T21:27:59.102Z,11.70
2019-03-26T21:30:28.202Z,10.40
2019-03-26T21:32:57.297Z,10.87
2019-03-26T21:35:28.800Z,10.43
2019-03-26T21:37:57.226Z,10.57
2019-03-26T21:40:26.353Z,10.73
2019-03-26T21:42:55.460Z,10.63
2019-03-26T21:45:35.155Z,10.37
2019-03-26T21:48:05.184Z,9.87
2019-03-26T21:50:34.278Z,10.57
2019-03-26T21:53:03.435Z,8.90
2019-03-26T21:55:32.605Z,10.83
2019-03-26T21:58:01.766Z,10.67
2019-03-26T22:00:30.936Z,10.97
2019-03-26T22:03:00.042Z,10.63
2019-03-26T22:05:29.163Z,10.07
2019-03-26T22:07:58.242Z,9.80
2019-03-26T22:10:27.362Z,11.03
2019-03-26T22:12:56.491Z,10.03
2019-03-26T22:15:25.611Z,10.80
2019-03-26T22:17:54.738Z,9.03
2019-03-26T22:20:24.007Z,9.63
2019-03-26T22:22:53.163Z,11.00
2019-03-26T22:25:22.306Z,10.97
2019-03-26T22:27:51.510Z,10.77
2019-03-26T22:30:20.787Z,10.47
2019-03-26T22:32:49.886Z,11.33
2019-03-26T22:35:19.006Z,11.93
2019-03-26T22:37:48.106Z,11.73
2019-03-26T22:40:17.197Z,11.37
2019-03-26T22:42:46.646Z,11.13
2019-03-26T22:45:15.766Z,11.33
2019-03-26T22:47:44.880Z,11.20
2019-03-26T22:50:14.010Z,12.37
2019-03-26T22:52:43.111Z,11.50
2019-03-26T22:55:12.226Z,11.40
2019-03-26T22:57:41.333Z,12.20
2019-03-26T23:00:13.530Z,12.07
